Time;durP1;ratioP1;P1;durP2;ratioP2;P2;SDS_P1;SDS_P2;PMS_P1;PMS_P2;Temp;Humidity;BMP_temperature;BMP_pressure;BME280_temperature;BME280_humidity;BME280_pressure;Samples;Min_cycle;Max_cycle;Signal;HPM_P1;HPM_P2
2022/11/30 00:01:19;;;;;;;136.18;42.83;;;6.30;99.90;;;;;;5023053;28;20568;-59
2022/11/30 00:03:45;;;;;;;128.23;43.42;;;6.30;99.90;;;;;;5024937;28;20038;-60
2022/11/30 00:06:13;;;;;;;126.00;41.38;;;6.30;99.90;;;;;;5024705;28;20546;-60
2022/11/30 00:08:38;;;;;;;144.88;44.15;;;6.30;99.90;;;;;;5024873;28;20460;-61
2022/11/30 00:11:12;;;;;;;135.90;43.03;;;6.30;99.90;;;;;;5025197;28;20041;-60
2022/11/30 00:13:38;;;;;;;129.18;41.42;;;6.30;99.90;;;;;;5025856;28;20065;-59
2022/11/30 00:16:04;;;;;;;122.25;41.85;;;6.30;99.90;;;;;;5024980;28;20115;-59
2022/11/30 00:18:30;;;;;;;123.03;41.15;;;6.30;99.90;;;;;;5025424;28;20123;-60
2022/11/30 00:21:00;;;;;;;131.30;43.58;;;6.30;99.90;;;;;;5024971;28;20052;-60
2022/11/30 00:23:30;;;;;;;120.07;43.40;;;6.30;99.90;;;;;;5024525;28;20045;-60
2022/11/30 00:26:02;;;;;;;124.47;42.25;;;6.30;99.90;;;;;;5024882;28;20467;-60
2022/11/30 00:28:29;;;;;;;128.50;44.88;;;6.30;99.90;;;;;;5025547;28;20591;-61
2022/11/30 00:30:59;;;;;;;116.60;45.00;;;6.30;99.90;;;;;;5022915;28;20088;-59
2022/11/30 00:33:25;;;;;;;118.38;44.88;;;6.30;99.90;;;;;;5024393;28;20128;-60
2022/11/30 00:35:58;;;;;;;112.20;42.92;;;6.30;99.90;;;;;;5024084;28;20445;-61
2022/11/30 00:38:24;;;;;;;102.50;44.30;;;6.30;99.90;;;;;;5022709;28;20124;-60
2022/11/30 00:40:50;;;;;;;104.60;42.47;;;6.30;99.90;;;;;;5025116;28;20631;-60
2022/11/30 00:43:16;;;;;;;107.68;44.70;;;6.30;99.90;;;;;;5023647;28;20400;-60
2022/11/30 00:45:41;;;;;;;113.38;44.63;;;6.30;99.90;;;;;;5024181;28;20400;-61
2022/11/30 00:48:07;;;;;;;108.05;42.25;;;6.30;99.90;;;;;;5024256;28;20247;-61
2022/11/30 00:50:32;;;;;;;99.72;39.17;;;6.30;99.90;;;;;;5023025;28;20094;-59
2022/11/30 00:52:58;;;;;;;104.05;41.28;;;6.30;99.90;;;;;;5023777;28;20041;-59
2022/11/30 00:55:23;;;;;;;109.65;41.20;;;6.30;99.90;;;;;;5024466;28;20042;-59
2022/11/30 00:57:49;;;;;;;94.20;39.53;;;6.30;99.90;;;;;;5024444;28;20131;-58
2022/11/30 01:00:15;;;;;;;99.60;40.13;;;6.20;99.90;;;;;;5024173;28;20041;-60
2022/11/30 01:02:40;;;;;;;96.32;40.42;;;6.20;99.90;;;;;;5024611;28;20037;-60
2022/11/30 01:05:06;;;;;;;95.00;41.00;;;6.20;99.90;;;;;;5022611;28;20041;-60
2022/11/30 01:07:32;;;;;;;96.43;41.05;;;6.20;99.90;;;;;;5023930;28;20045;-61
2022/11/30 01:09:57;;;;;;;93.00;39.35;;;6.20;99.90;;;;;;5024479;28;20504;-59
2022/11/30 01:12:23;;;;;;;85.45;39.40;;;6.20;99.90;;;;;;5023551;28;20045;-60
2022/11/30 01:14:48;;;;;;;88.47;38.65;;;6.20;99.90;;;;;;5023665;28;20711;-59
2022/11/30 01:17:14;;;;;;;92.97;38.95;;;6.20;99.90;;;;;;5023110;28;20040;-61
2022/11/30 01:19:39;;;;;;;90.32;38.15;;;6.20;99.90;;;;;;5023540;28;20079;-60
2022/11/30 01:22:05;;;;;;;77.65;37.92;;;6.20;99.90;;;;;;5021091;28;20049;-61
2022/11/30 01:24:30;;;;;;;82.40;37.20;;;6.20;99.90;;;;;;5022689;28;20489;-60
2022/11/30 01:26:56;;;;;;;81.10;37.13;;;6.20;99.90;;;;;;5023972;28;20041;-62
2022/11/30 01:29:21;;;;;;;85.47;37.55;;;6.20;99.90;;;;;;5022019;28;20049;-61
2022/11/30 01:31:47;;;;;;;82.85;36.63;;;6.20;99.90;;;;;;5022628;28;20048;-62
2022/11/30 01:34:12;;;;;;;83.10;36.63;;;6.20;99.90;;;;;;5022428;28;20203;-62
2022/11/30 01:36:38;;;;;;;74.82;36.10;;;6.20;99.90;;;;;;5022268;28;20099;-62
2022/11/30 01:39:08;;;;;;;71.10;36.20;;;6.20;99.90;;;;;;5024509;28;20052;-62
2022/11/30 01:41:34;;;;;;;73.40;35.00;;;6.20;99.90;;;;;;5022878;28;20053;-62
2022/11/30 01:44:05;;;;;;;76.95;36.63;;;6.20;99.90;;;;;;5023586;28;20238;-62
2022/11/30 01:46:39;;;;;;;78.68;38.03;;;6.20;99.90;;;;;;5022863;28;20116;-62
2022/11/30 01:49:07;;;;;;;71.18;36.63;;;6.20;99.90;;;;;;5022662;28;20076;-64
2022/11/30 01:51:59;;;;;;;69.40;35.00;;;6.20;99.90;;;;;;5021952;28;20061;-62
2022/11/30 01:54:31;;;;;;;70.13;36.00;;;6.20;99.90;;;;;;5019065;28;20056;-62
2022/11/30 01:57:05;;;;;;;61.10;32.17;;;6.20;99.90;;;;;;5022379;28;20455;-62
2022/11/30 01:59:31;;;;;;;67.50;34.03;;;6.30;99.90;;;;;;5023190;28;20042;-62
2022/11/30 02:01:57;;;;;;;72.57;33.67;;;6.30;99.90;;;;;;5023838;28;20637;-63
2022/11/30 02:04:32;;;;;;;70.53;34.45;;;6.20;99.90;;;;;;5023170;28;20048;-62
2022/11/30 02:07:00;;;;;;;70.53;35.47;;;6.30;99.90;;;;;;5022015;28;20116;-61
2022/11/30 02:09:27;;;;;;;76.13;36.55;;;6.30;99.90;;;;;;5022547;28;20041;-61
2022/11/30 02:11:53;;;;;;;74.22;36.40;;;6.30;99.90;;;;;;5023683;28;20463;-62
2022/11/30 02:14:41;;;;;;;76.00;37.67;;;6.30;99.90;;;;;;5022655;28;20090;-62
2022/11/30 02:17:51;;;;;;;67.20;34.00;;;6.30;99.90;;;;;;5023423;28;20041;-63
2022/11/30 02:20:46;;;;;;;65.38;34.28;;;6.30;99.90;;;;;;5022676;28;20048;-62
2022/11/30 02:23:35;;;;;;;71.55;35.35;;;6.30;99.90;;;;;;5022574;28;20151;-61
2022/11/30 02:26:33;;;;;;;72.55;34.25;;;6.30;99.90;;;;;;5025303;28;20114;-62
2022/11/30 02:29:37;;;;;;;72.78;34.53;;;6.30;99.90;;;;;;5026955;28;20076;-62
2022/11/30 02:32:14;;;;;;;74.32;34.33;;;6.30;99.90;;;;;;5004245;28;20081;-62
2022/11/30 02:34:42;;;;;;;67.43;34.90;;;6.20;99.90;;;;;;4987515;28;20050;-62
2022/11/30 02:37:11;;;;;;;69.07;32.65;;;6.20;99.90;;;;;;5016539;28;20045;-63
2022/11/30 02:39:36;;;;;;;68.75;34.70;;;6.30;99.90;;;;;;5027254;28;20160;-62
2022/11/30 02:42:02;;;;;;;71.95;35.17;;;6.20;99.90;;;;;;5027411;28;20140;-62
2022/11/30 02:44:28;;;;;;;74.28;35.38;;;6.20;99.90;;;;;;5025267;28;20174;-62
2022/11/30 02:47:11;;;;;;;65.13;34.30;;;6.20;99.90;;;;;;5026803;28;20056;-62
2022/11/30 02:49:46;;;;;;;70.10;33.95;;;6.30;99.90;;;;;;5022494;28;20627;-62
2022/11/30 02:52:14;;;;;;;75.05;35.00;;;6.20;99.90;;;;;;5011360;28;20077;-61
2022/11/30 02:54:39;;;;;;;79.32;35.75;;;6.30;99.90;;;;;;5025167;28;20279;-62
2022/11/30 02:57:05;;;;;;;74.60;35.92;;;6.30;99.90;;;;;;5026837;28;20132;-62
2022/11/30 02:59:31;;;;;;;71.35;33.65;;;6.30;99.90;;;;;;5025202;28;20116;-62
2022/11/30 03:01:57;;;;;;;73.22;34.25;;;6.20;99.90;;;;;;5025043;28;20163;-62
2022/11/30 03:04:22;;;;;;;82.65;36.13;;;6.20;99.90;;;;;;5023440;28;20418;-61
2022/11/30 03:06:48;;;;;;;73.78;34.47;;;6.20;99.90;;;;;;5025154;28;20041;-61
2022/11/30 03:09:14;;;;;;;72.72;34.53;;;6.20;99.90;;;;;;5025511;28;20459;-61
2022/11/30 03:11:39;;;;;;;80.03;34.95;;;6.20;99.90;;;;;;5024860;28;20069;-62
2022/11/30 03:14:05;;;;;;;81.95;34.38;;;6.30;99.90;;;;;;5026498;28;20045;-61
2022/11/30 03:16:30;;;;;;;79.90;35.28;;;6.20;99.90;;;;;;5041208;28;20115;-61
2022/11/30 03:18:57;;;;;;;76.13;34.03;;;6.20;99.90;;;;;;5023776;28;20985;-61
2022/11/30 03:21:23;;;;;;;80.25;34.33;;;6.20;99.90;;;;;;5025300;28;20037;-60
2022/11/30 03:23:49;;;;;;;78.22;34.42;;;6.20;99.90;;;;;;5026519;28;20068;-60
2022/11/30 03:26:14;;;;;;;85.93;34.42;;;6.20;99.90;;;;;;5026163;28;20392;-61
2022/11/30 03:28:40;;;;;;;73.85;35.40;;;6.20;99.90;;;;;;5026636;28;20117;-60
2022/11/30 03:31:09;;;;;;;78.82;36.03;;;6.20;99.90;;;;;;5025264;28;20050;-62
2022/11/30 03:33:35;;;;;;;82.55;35.38;;;6.20;99.90;;;;;;5025099;28;20469;-62
2022/11/30 03:36:06;;;;;;;83.38;35.15;;;6.10;99.90;;;;;;5017615;28;20117;-60
2022/11/30 03:38:32;;;;;;;81.10;35.95;;;6.10;99.90;;;;;;5024172;28;20045;-59
2022/11/30 03:41:10;;;;;;;94.60;38.05;;;6.10;99.90;;;;;;5026239;28;20045;-61
2022/11/30 03:43:36;;;;;;;89.53;36.17;;;6.10;99.90;;;;;;5025468;28;20041;-60
2022/11/30 03:46:02;;;;;;;91.93;35.53;;;6.10;99.90;;;;;;5025836;28;20047;-61
2022/11/30 03:48:29;;;;;;;91.35;34.38;;;6.10;99.90;;;;;;5025170;28;20623;-60
2022/11/30 03:50:55;;;;;;;86.25;35.70;;;6.10;99.90;;;;;;5024819;28;20100;-59
2022/11/30 03:53:22;;;;;;;93.38;36.00;;;6.10;99.90;;;;;;5025062;28;20087;-60
2022/11/30 03:55:52;;;;;;;91.30;34.58;;;6.10;99.90;;;;;;5025377;28;20052;-59
2022/11/30 03:58:18;;;;;;;95.38;36.05;;;6.10;99.90;;;;;;5026221;28;20120;-61
2022/11/30 04:00:44;;;;;;;101.20;37.22;;;6.10;99.90;;;;;;5024782;28;20149;-60
2022/11/30 04:03:09;;;;;;;101.10;35.47;;;6.10;99.90;;;;;;5026131;28;20162;-60
2022/11/30 04:05:35;;;;;;;92.45;36.50;;;6.10;99.90;;;;;;5014533;28;20069;-61
2022/11/30 04:08:01;;;;;;;94.18;36.80;;;6.00;99.90;;;;;;5018964;28;20045;-60
2022/11/30 04:10:26;;;;;;;93.25;36.67;;;6.00;99.90;;;;;;5025492;28;20033;-60
2022/11/30 04:12:52;;;;;;;92.88;35.17;;;6.10;99.90;;;;;;5025914;28;20386;-62
2022/11/30 04:15:17;;;;;;;100.53;35.85;;;6.10;99.90;;;;;;5024420;28;20045;-59
2022/11/30 04:17:43;;;;;;;100.75;36.28;;;6.00;99.90;;;;;;5025415;28;20501;-60
2022/11/30 04:20:09;;;;;;;102.03;36.35;;;6.10;99.90;;;;;;5023753;28;20045;-59
2022/11/30 04:22:34;;;;;;;87.78;34.38;;;6.00;99.90;;;;;;5024644;28;20052;-61
2022/11/30 04:25:00;;;;;;;98.20;36.40;;;6.00;99.90;;;;;;5024665;28;20107;-59
2022/11/30 04:27:27;;;;;;;108.53;36.63;;;6.10;99.90;;;;;;5025213;28;20045;-60
2022/11/30 04:29:53;;;;;;;110.50;36.08;;;6.00;99.90;;;;;;5025415;28;20567;-61
2022/11/30 04:32:18;;;;;;;119.40;38.42;;;6.00;99.90;;;;;;5024800;28;20034;-59
2022/11/30 04:34:44;;;;;;;117.70;39.00;;;6.00;99.90;;;;;;5023909;28;20042;-61
2022/11/30 04:37:09;;;;;;;116.47;37.80;;;6.00;99.90;;;;;;5023640;28;20030;-59
2022/11/30 04:39:35;;;;;;;128.05;38.90;;;6.00;99.90;;;;;;5024024;28;20045;-61
2022/11/30 04:42:01;;;;;;;128.85;38.20;;;6.00;99.90;;;;;;5025327;28;20053;-57
2022/11/30 04:44:26;;;;;;;129.68;40.65;;;6.00;99.90;;;;;;5024401;28;20041;-58
2022/11/30 04:46:52;;;;;;;122.45;38.58;;;5.90;99.90;;;;;;5025337;28;20049;-59
2022/11/30 04:49:17;;;;;;;124.05;39.38;;;5.90;99.90;;;;;;5024129;28;20500;-58
2022/11/30 04:51:43;;;;;;;132.35;41.85;;;5.90;99.90;;;;;;5022164;28;20053;-58
2022/11/30 04:54:08;;;;;;;143.07;41.17;;;5.90;99.90;;;;;;5024069;28;20058;-59
2022/11/30 04:56:34;;;;;;;148.02;40.72;;;5.90;99.90;;;;;;5025099;28;20048;-60
2022/11/30 04:59:01;;;;;;;145.77;43.53;;;5.90;99.90;;;;;;5024571;28;20044;-59
2022/11/30 05:01:26;;;;;;;157.30;42.55;;;5.90;99.90;;;;;;5024391;28;20400;-59
2022/11/30 05:03:52;;;;;;;153.90;43.95;;;5.90;99.90;;;;;;5022294;28;20042;-60
2022/11/30 05:06:18;;;;;;;160.73;45.50;;;5.80;99.90;;;;;;5023950;28;20045;-59
2022/11/30 05:08:43;;;;;;;167.38;44.08;;;5.80;99.90;;;;;;5023784;28;20041;-59
2022/11/30 05:11:09;;;;;;;173.88;46.45;;;5.80;99.90;;;;;;5022868;28;20073;-60
2022/11/30 05:13:35;;;;;;;135.07;41.28;;;5.80;99.90;;;;;;5023912;28;20046;-61
2022/11/30 05:16:00;;;;;;;147.85;42.25;;;5.80;99.90;;;;;;5024380;28;20052;-59
2022/11/30 05:18:26;;;;;;;132.70;41.47;;;5.80;99.90;;;;;;5023539;28;20519;-59
2022/11/30 05:20:52;;;;;;;119.95;37.92;;;5.80;99.90;;;;;;5023695;28;20048;-58
2022/11/30 05:23:18;;;;;;;124.50;39.65;;;5.80;99.90;;;;;;5022028;28;20453;-60
2022/11/30 05:25:45;;;;;;;119.95;38.45;;;5.80;99.90;;;;;;5021512;28;20053;-60
2022/11/30 05:28:10;;;;;;;127.35;39.85;;;5.80;99.90;;;;;;5004818;28;20046;-60
2022/11/30 05:30:39;;;;;;;118.32;40.08;;;5.80;99.90;;;;;;5021987;28;20045;-60
2022/11/30 05:33:05;;;;;;;118.28;38.75;;;5.90;99.90;;;;;;5024110;28;20532;-60
2022/11/30 05:35:30;;;;;;;117.85;39.92;;;5.90;99.90;;;;;;5022846;28;20041;-60
2022/11/30 05:37:56;;;;;;;122.22;39.03;;;5.90;99.90;;;;;;5022920;28;20121;-59
2022/11/30 05:40:21;;;;;;;124.22;39.83;;;5.90;99.90;;;;;;5024217;28;20037;-60
2022/11/30 05:42:53;;;;;;;115.78;40.00;;;5.90;99.90;;;;;;5024316;28;20124;-59
2022/11/30 05:45:18;;;;;;;135.27;42.08;;;5.90;99.90;;;;;;5023496;28;20057;-58
2022/11/30 05:47:44;;;;;;;136.23;41.35;;;5.90;99.90;;;;;;5024118;28;20120;-58
2022/11/30 05:50:10;;;;;;;142.40;43.17;;;5.80;99.90;;;;;;5022004;28;20044;-60
2022/11/30 05:52:35;;;;;;;132.90;40.67;;;5.80;99.90;;;;;;5037849;28;20050;-60
2022/11/30 05:55:01;;;;;;;132.73;40.05;;;5.80;99.90;;;;;;5023143;28;20037;-60
2022/11/30 05:57:26;;;;;;;123.32;38.75;;;5.80;99.90;;;;;;5024358;28;20040;-57
2022/11/30 05:59:52;;;;;;;101.07;34.83;;;5.80;99.90;;;;;;5022598;28;20048;-59
2022/11/30 06:02:17;;;;;;;108.60;34.70;;;5.80;99.90;;;;;;5024118;28;20052;-60
2022/11/30 06:04:43;;;;;;;98.07;34.30;;;5.70;99.90;;;;;;5022439;28;20476;-59
2022/11/30 06:07:10;;;;;;;92.15;33.00;;;5.70;99.90;;;;;;5022434;28;20457;-60
2022/11/30 06:09:37;;;;;;;93.22;33.33;;;5.70;99.90;;;;;;5023329;28;20048;-58
2022/11/30 06:12:03;;;;;;;91.28;32.80;;;5.70;99.90;;;;;;5023588;28;20052;-60
2022/11/30 06:14:28;;;;;;;89.35;32.05;;;5.70;99.90;;;;;;5022826;28;20033;-59
2022/11/30 06:16:54;;;;;;;74.82;29.75;;;5.70;99.90;;;;;;5022901;28;20091;-58
2022/11/30 06:19:19;;;;;;;73.68;30.52;;;5.70;99.90;;;;;;5022476;28;20277;-60
2022/11/30 06:21:45;;;;;;;67.65;28.33;;;5.70;99.90;;;;;;5022190;28;20052;-60
2022/11/30 06:24:11;;;;;;;70.57;28.98;;;5.70;99.90;;;;;;5022272;28;20037;-58
2022/11/30 06:26:36;;;;;;;63.58;27.52;;;5.80;99.90;;;;;;5023873;28;20175;-61
2022/11/30 06:29:02;;;;;;;66.18;29.08;;;5.80;99.90;;;;;;5023804;28;20496;-60
2022/11/30 06:31:29;;;;;;;64.80;28.92;;;5.80;99.90;;;;;;5023074;28;20038;-61
2022/11/30 06:33:58;;;;;;;77.53;30.02;;;5.80;99.90;;;;;;5022130;28;20056;-61
2022/11/30 06:36:23;;;;;;;68.75;28.80;;;5.80;99.90;;;;;;5022251;28;20441;-60
2022/11/30 06:38:50;;;;;;;73.28;28.90;;;5.80;99.90;;;;;;5022161;28;20063;-61
2022/11/30 06:41:15;;;;;;;73.68;29.23;;;5.80;99.90;;;;;;5023261;28;20084;-60
2022/11/30 06:43:41;;;;;;;63.03;27.58;;;5.80;99.90;;;;;;5023361;28;20095;-58
2022/11/30 06:46:07;;;;;;;63.53;27.10;;;5.80;99.90;;;;;;5023144;28;20108;-60
2022/11/30 06:48:34;;;;;;;59.92;27.77;;;5.80;99.90;;;;;;5022327;28;20033;-60
2022/11/30 06:51:03;;;;;;;57.80;27.10;;;5.70;99.90;;;;;;5022837;28;20092;-58
2022/11/30 06:53:29;;;;;;;57.20;25.88;;;5.70;99.90;;;;;;5021917;28;20057;-60
2022/11/30 06:55:54;;;;;;;53.60;25.73;;;5.70;99.90;;;;;;5023030;28;20045;-60
2022/11/30 06:58:20;;;;;;;54.45;25.33;;;5.70;99.90;;;;;;5022188;28;20046;-62
2022/11/30 07:00:46;;;;;;;50.92;24.83;;;5.70;99.90;;;;;;5022154;28;20041;-59
2022/11/30 07:03:12;;;;;;;45.67;23.23;;;5.70;99.90;;;;;;5036578;28;20080;-58
2022/11/30 07:05:45;;;;;;;46.85;24.50;;;5.70;99.90;;;;;;5021063;28;20873;-60
2022/11/30 07:08:15;;;;;;;48.70;24.08;;;5.70;99.90;;;;;;5022060;28;20614;-59
2022/11/30 07:10:45;;;;;;;46.67;24.35;;;5.70;99.90;;;;;;5023689;28;20498;-61
2022/11/30 07:13:12;;;;;;;44.35;22.42;;;5.70;99.90;;;;;;5026610;28;20257;-59
2022/11/30 07:15:40;;;;;;;41.97;22.35;;;5.70;99.90;;;;;;5026324;28;20045;-61
2022/11/30 07:18:06;;;;;;;45.00;23.65;;;5.70;99.90;;;;;;5026800;28;20623;-59
2022/11/30 07:20:32;;;;;;;37.97;21.23;;;5.70;99.90;;;;;;5025099;28;20056;-60
2022/11/30 07:26:05;;;;;;;36.60;20.90;;;5.70;99.90;;;;;;5025944;28;20042;-61
2022/11/30 07:28:27;;;;;;;34.65;18.50;;;5.70;99.90;;;;;;5025667;28;20045;-60
2022/11/30 07:30:53;;;;;;;35.78;20.63;;;5.70;99.90;;;;;;5025438;28;20636;-60
2022/11/30 07:33:18;;;;;;;35.97;19.98;;;5.70;99.90;;;;;;5025661;28;20045;-60
2022/11/30 07:35:44;;;;;;;34.28;19.48;;;5.70;99.90;;;;;;5024845;28;20049;-59
2022/11/30 07:38:10;;;;;;;34.92;19.42;;;5.70;99.90;;;;;;5024644;28;20416;-58
2022/11/30 07:40:35;;;;;;;39.00;21.98;;;5.70;99.90;;;;;;5024457;28;20134;-60
2022/11/30 07:43:01;;;;;;;32.97;19.77;;;5.70;99.90;;;;;;5026390;28;20080;-59
2022/11/30 07:45:27;;;;;;;36.05;20.80;;;5.70;99.90;;;;;;5025106;28;20037;-59
2022/11/30 07:47:53;;;;;;;37.25;21.58;;;5.70;99.90;;;;;;5026268;28;20041;-58
2022/11/30 07:50:18;;;;;;;36.42;20.98;;;5.70;99.90;;;;;;5024767;28;20057;-60
2022/11/30 07:52:44;;;;;;;38.33;21.00;;;5.70;99.90;;;;;;5025447;28;20049;-61
2022/11/30 07:55:10;;;;;;;35.83;20.55;;;5.60;99.90;;;;;;5023936;28;20664;-60
2022/11/30 07:57:35;;;;;;;36.38;21.55;;;5.60;99.90;;;;;;5024979;28;20470;-61
2022/11/30 08:00:02;;;;;;;37.33;21.70;;;5.60;99.90;;;;;;5024954;28;20649;-59
2022/11/30 08:02:27;;;;;;;37.63;21.80;;;5.60;99.90;;;;;;5026113;28;20425;-60
2022/11/30 08:04:56;;;;;;;39.75;22.27;;;5.60;99.90;;;;;;5024728;28;20048;-60
2022/11/30 08:07:22;;;;;;;42.20;24.52;;;5.60;99.90;;;;;;5023621;28;20057;-61
2022/11/30 08:09:48;;;;;;;39.50;23.27;;;5.60;99.90;;;;;;5024214;28;20045;-61
2022/11/30 08:12:13;;;;;;;42.85;24.05;;;5.60;99.90;;;;;;5024525;28;20059;-60
2022/11/30 08:14:39;;;;;;;44.72;24.23;;;5.60;99.90;;;;;;5024790;28;20102;-61
2022/11/30 08:17:04;;;;;;;45.08;23.80;;;5.60;99.90;;;;;;5025404;28;20041;-60
2022/11/30 08:19:30;;;;;;;40.05;23.08;;;5.60;99.90;;;;;;5024560;28;20080;-60
2022/11/30 08:21:55;;;;;;;39.55;23.40;;;5.60;99.90;;;;;;5024490;28;20052;-60
2022/11/30 08:24:21;;;;;;;41.88;24.52;;;5.60;99.90;;;;;;5022974;28;20052;-60
2022/11/30 08:26:51;;;;;;;41.53;22.98;;;5.60;99.90;;;;;;5025197;28;20112;-60
2022/11/30 08:29:16;;;;;;;40.72;23.50;;;5.60;99.90;;;;;;5025125;28;20044;-60
2022/11/30 08:31:42;;;;;;;41.30;24.65;;;5.60;99.90;;;;;;5024593;28;20112;-61
2022/11/30 08:34:10;;;;;;;42.30;24.80;;;5.70;99.90;;;;;;5023659;28;20038;-60
2022/11/30 08:36:36;;;;;;;42.72;25.52;;;5.70;99.90;;;;;;5023101;28;20456;-61
2022/11/30 08:39:03;;;;;;;44.25;24.65;;;5.70;99.90;;;;;;5022729;28;20045;-60
2022/11/30 08:41:30;;;;;;;40.30;24.40;;;5.70;99.90;;;;;;5025260;28;20041;-59
2022/11/30 08:43:56;;;;;;;43.88;25.10;;;5.70;99.90;;;;;;5024252;28;20141;-59
2022/11/30 08:46:23;;;;;;;41.15;23.75;;;5.70;99.90;;;;;;5024458;28;20563;-60
2022/11/30 08:48:49;;;;;;;43.75;23.95;;;5.70;99.90;;;;;;5024352;28;20136;-60
2022/11/30 08:51:16;;;;;;;41.55;25.13;;;5.60;99.90;;;;;;5024304;28;20712;-60
2022/11/30 08:53:42;;;;;;;41.58;24.58;;;5.70;99.90;;;;;;5025258;28;20466;-60
2022/11/30 08:56:17;;;;;;;47.13;26.13;;;5.60;99.90;;;;;;5024477;28;20037;-60
2022/11/30 08:58:42;;;;;;;;;;;5.70;99.90;;;;;;5025430;28;20525;-60
2022/11/30 09:01:13;;;;;;;43.95;23.90;;;5.60;99.90;;;;;;5023955;28;20024;-60
2022/11/30 09:03:40;;;;;;;48.45;23.90;;;5.60;99.90;;;;;;5022144;28;20041;-60
2022/11/30 09:06:17;;;;;;;45.55;25.13;;;5.60;99.90;;;;;;5023780;28;20037;-60
2022/11/30 09:08:46;;;;;;;45.72;25.23;;;5.70;99.90;;;;;;5024260;28;20056;-61
2022/11/30 09:11:17;;;;;;;44.30;24.25;;;5.70;99.90;;;;;;5023811;28;20037;-60
2022/11/30 09:13:44;;;;;;;47.03;26.13;;;5.70;99.90;;;;;;5024509;28;20103;-60
2022/11/30 09:16:11;;;;;;;47.35;25.17;;;5.70;99.90;;;;;;5023596;28;20607;-59
2022/11/30 09:18:37;;;;;;;43.83;24.70;;;5.70;99.90;;;;;;5023555;28;20483;-59
2022/11/30 09:21:05;;;;;;;43.97;24.98;;;5.60;99.90;;;;;;5023785;28;20496;-60
2022/11/30 09:23:31;;;;;;;47.13;25.38;;;5.70;99.90;;;;;;5022168;28;20041;-59
2022/11/30 09:25:59;;;;;;;44.00;24.63;;;5.70;99.90;;;;;;5024254;28;20077;-59
2022/11/30 09:28:25;;;;;;;45.90;24.88;;;5.70;99.90;;;;;;5039071;28;20128;-59
2022/11/30 09:30:52;;;;;;;48.95;27.10;;;5.70;99.90;;;;;;5023139;28;20480;-61
2022/11/30 09:33:19;;;;;;;51.40;26.80;;;5.70;99.90;;;;;;5022780;28;20044;-60
2022/11/30 09:35:54;;;;;;;51.67;26.67;;;5.70;99.90;;;;;;5022957;28;20116;-60
2022/11/30 09:38:19;;;;;;;47.20;26.25;;;5.80;99.90;;;;;;5024592;28;20037;-59
2022/11/30 09:40:50;;;;;;;48.78;26.30;;;5.80;99.90;;;;;;5023536;28;20080;-61
2022/11/30 09:43:43;;;;;;;42.08;24.42;;;5.80;99.90;;;;;;5022586;28;20118;-60
2022/11/30 09:46:08;;;;;;;47.90;26.48;;;5.80;99.90;;;;;;5023064;28;20052;-59
2022/11/30 09:48:56;;;;;;;48.47;25.45;;;5.80;99.90;;;;;;5023049;28;20539;-60
2022/11/30 09:51:28;;;;;;;47.58;26.35;;;5.80;99.90;;;;;;5003306;28;20062;-60
2022/11/30 09:54:00;;;;;;;48.03;26.63;;;5.80;99.90;;;;;;5003698;28;20807;-60
2022/11/30 09:56:30;;;;;;;50.78;26.65;;;5.80;99.90;;;;;;5003939;28;20386;-59
2022/11/30 09:59:13;;;;;;;51.20;28.80;;;5.80;99.90;;;;;;5019620;28;20041;-59
2022/11/30 10:01:39;;;;;;;51.88;27.98;;;5.90;99.90;;;;;;5021133;28;20041;-60
2022/11/30 10:04:08;;;;;;;50.45;28.45;;;5.90;99.90;;;;;;5022402;28;20123;-60
2022/11/30 10:07:04;;;;;;;53.13;27.67;;;5.90;99.90;;;;;;5005452;28;20049;-60
2022/11/30 10:09:48;;;;;;;45.53;25.52;;;5.90;99.90;;;;;;5023410;28;20203;-60
2022/11/30 10:12:19;;;;;;;46.10;25.40;;;6.00;99.90;;;;;;5023647;28;20060;-61
2022/11/30 10:14:56;;;;;;;44.20;25.30;;;6.00;99.90;;;;;;5020970;28;20038;-61
2022/11/30 10:17:29;;;;;;;49.35;25.95;;;6.00;99.90;;;;;;5023656;28;20041;-62
2022/11/30 10:20:07;;;;;;;50.85;26.45;;;6.00;99.90;;;;;;5022880;28;20099;-60
2022/11/30 10:22:50;;;;;;;47.55;25.35;;;6.00;99.90;;;;;;5023540;28;20095;-62
2022/11/30 10:25:19;;;;;;;47.15;24.90;;;6.00;99.90;;;;;;5023439;28;20042;-62
2022/11/30 10:27:52;;;;;;;47.42;25.85;;;6.00;99.90;;;;;;5023816;28;20666;-61
2022/11/30 10:30:28;;;;;;;50.63;26.05;;;6.00;99.90;;;;;;5022173;28;20045;-62
2022/11/30 10:32:58;;;;;;;41.72;23.95;;;6.10;99.90;;;;;;5022987;28;20037;-61
2022/11/30 10:35:40;;;;;;;41.13;23.25;;;6.10;99.90;;;;;;5021451;28;20056;-60
2022/11/30 10:38:54;;;;;;;42.78;25.05;;;6.10;99.90;;;;;;5022813;28;20045;-61
2022/11/30 10:41:55;;;;;;;44.85;25.33;;;6.10;99.90;;;;;;5007866;28;20151;-62
2022/11/30 10:44:28;;;;;;;39.15;23.58;;;6.10;99.90;;;;;;5014975;28;20041;-62
2022/11/30 10:47:17;;;;;;;41.58;25.10;;;6.10;99.90;;;;;;5026700;28;20049;-62
2022/11/30 10:49:48;;;;;;;45.05;26.10;;;6.20;99.90;;;;;;5026845;28;20048;-62
2022/11/30 10:52:19;;;;;;;41.13;23.95;;;6.20;99.90;;;;;;5026447;28;20138;-61
2022/11/30 10:54:45;;;;;;;44.60;25.58;;;6.20;99.90;;;;;;5025728;28;20060;-62
2022/11/30 10:57:13;;;;;;;45.33;25.75;;;6.20;99.90;;;;;;5025732;28;20416;-60
2022/11/30 10:59:46;;;;;;;42.13;24.63;;;6.20;99.90;;;;;;5026159;28;20033;-60
2022/11/30 11:02:33;;;;;;;41.08;23.88;;;6.10;99.90;;;;;;5007371;28;20046;-61
2022/11/30 11:05:16;;;;;;;40.60;24.38;;;6.10;99.90;;;;;;5017166;28;20081;-61
2022/11/30 11:07:56;;;;;;;43.63;25.85;;;6.10;99.90;;;;;;5025887;28;20065;-62
2022/11/30 11:10:29;;;;;;;40.60;24.83;;;6.10;99.90;;;;;;5026828;28;20493;-62
2022/11/30 11:12:56;;;;;;;43.35;25.15;;;6.10;99.90;;;;;;5027246;28;20053;-61
2022/11/30 11:15:26;;;;;;;49.03;27.27;;;6.10;99.90;;;;;;5026004;28;20112;-61
2022/11/30 11:17:53;;;;;;;45.92;26.70;;;6.10;99.90;;;;;;5026533;28;20107;-61
2022/11/30 11:20:37;;;;;;;43.08;24.73;;;6.10;99.90;;;;;;5024993;28;20127;-62
2022/11/30 11:23:04;;;;;;;52.00;27.00;;;6.10;99.90;;;;;;5025739;28;20151;-61
2022/11/30 11:25:34;;;;;;;48.90;27.95;;;6.10;99.90;;;;;;5025976;28;20033;-62
2022/11/30 11:28:07;;;;;;;52.92;28.35;;;6.10;99.90;;;;;;5026952;28;20714;-61
2022/11/30 11:30:34;;;;;;;41.22;24.55;;;6.10;99.90;;;;;;5025310;28;20147;-60
2022/11/30 11:33:02;;;;;;;43.90;25.67;;;6.10;99.90;;;;;;5025845;28;20048;-60
2022/11/30 11:35:45;;;;;;;47.13;26.00;;;6.10;99.90;;;;;;5024769;28;20403;-61
2022/11/30 11:38:37;;;;;;;49.75;27.08;;;6.10;99.90;;;;;;5025725;28;20044;-61
2022/11/30 11:41:23;;;;;;;54.28;29.20;;;6.10;99.90;;;;;;5024094;28;20539;-62
2022/11/30 11:44:07;;;;;;;52.45;28.63;;;6.10;99.90;;;;;;5024621;28;20052;-62
2022/11/30 11:46:35;;;;;;;50.45;28.83;;;6.10;99.90;;;;;;5021706;28;20052;-61
2022/11/30 11:49:06;;;;;;;52.67;29.33;;;6.10;99.90;;;;;;5025696;28;20057;-62
2022/11/30 11:51:38;;;;;;;56.78;31.15;;;6.10;99.90;;;;;;5025320;28;20148;-61
2022/11/30 11:54:22;;;;;;;54.05;31.00;;;6.10;99.90;;;;;;5025210;28;20508;-61
2022/11/30 11:56:48;;;;;;;54.55;29.55;;;6.10;99.90;;;;;;5025666;28;20042;-61
2022/11/30 11:59:37;;;;;;;60.95;32.30;;;6.10;99.90;;;;;;5025311;28;20035;-61
2022/11/30 12:02:33;;;;;;;60.03;32.40;;;6.10;99.90;;;;;;5025729;28;20045;-60
2022/11/30 12:05:16;;;;;;;60.80;32.75;;;6.00;99.90;;;;;;5024329;28;20065;-59
2022/11/30 12:08:06;;;;;;;61.47;31.63;;;6.00;99.90;;;;;;5025431;28;20132;-60
2022/11/30 12:10:36;;;;;;;54.88;31.10;;;6.00;99.90;;;;;;5025481;28;20052;-60
2022/11/30 12:13:14;;;;;;;60.97;33.80;;;6.00;99.90;;;;;;5025559;28;20125;-60
2022/11/30 12:16:15;;;;;;;62.45;33.45;;;6.00;99.90;;;;;;5024838;28;20052;-61
2022/11/30 12:19:04;;;;;;;74.20;35.53;;;6.00;99.90;;;;;;5024288;28;20037;-60
2022/11/30 12:21:45;;;;;;;73.13;35.75;;;6.00;99.90;;;;;;5005407;28;20047;-61
2022/11/30 12:24:19;;;;;;;78.65;38.92;;;6.00;99.90;;;;;;5004468;28;20575;-61
2022/11/30 12:26:58;;;;;;;89.82;40.92;;;6.00;99.90;;;;;;5021635;28;20091;-60
2022/11/30 12:29:36;;;;;;;84.03;38.72;;;6.00;99.90;;;;;;5024527;28;20045;-62
2022/11/30 12:32:23;;;;;;;84.95;38.95;;;6.00;99.90;;;;;;5024737;28;20042;-61
2022/11/30 12:35:22;;;;;;;80.50;39.17;;;6.00;99.90;;;;;;5024110;28;20133;-60
2022/11/30 12:37:58;;;;;;;77.95;37.95;;;6.00;99.90;;;;;;5025181;28;20049;-60
2022/11/30 12:40:40;;;;;;;74.30;35.95;;;6.00;99.90;;;;;;5025642;28;20046;-60
2022/11/30 12:43:34;;;;;;;76.32;37.08;;;6.00;99.90;;;;;;5024666;28;20351;-60
2022/11/30 12:46:18;;;;;;;70.25;35.70;;;6.00;99.90;;;;;;5023981;28;20049;-61
2022/11/30 12:49:00;;;;;;;66.43;35.08;;;6.00;99.90;;;;;;5024191;28;20338;-60
2022/11/30 12:51:34;;;;;;;62.95;33.35;;;6.00;99.90;;;;;;5023884;28;20349;-60
2022/11/30 12:54:08;;;;;;;62.80;34.63;;;6.00;99.90;;;;;;5023953;28;20136;-60